Time;durP1;ratioP1;P1;durP2;ratioP2;P2;SDS_P1;SDS_P2;PMS_P1;PMS_P2;Temp;Humidity;BMP_temperature;BMP_pressure;BME280_temperature;BME280_humidity;BME280_pressure;Samples;Min_cycle;Max_cycle;Signal;HPM_P1;HPM_P2
2022/01/26 00:00:18;;;;;;;89.25;46.60;;;;;;;1.33;93.89;103260.38;1039793;28;20314;-78
2022/01/26 00:06:11;;;;;;;90.57;47.25;;;;;;;1.42;93.13;103245.84;1040229;28;20661;-78
2022/01/26 00:06:44;;;;;;;92.72;49.50;;;;;;;1.44;93.02;103242.16;1035517;28;20678;-78
2022/01/26 00:07:16;;;;;;;97.32;51.28;;;;;;;1.41;93.55;103241.53;1031552;28;20349;-78
2022/01/26 00:07:47;;;;;;;91.72;51.00;;;;;;;1.41;93.23;103246.78;1027247;28;20400;-78
2022/01/26 00:08:24;;;;;;;94.93;50.97;;;;;;;1.31;93.29;103248.28;1030002;28;20305;-78
2022/01/26 00:08:56;;;;;;;94.43;54.15;;;;;;;1.34;93.01;103255.94;1036484;28;20308;-78
2022/01/26 00:09:27;;;;;;;98.28;51.38;;;;;;;1.31;93.23;103241.25;1035132;28;20318;-78
2022/01/26 00:09:59;;;;;;;99.32;54.58;;;;;;;1.29;93.24;103248.38;1036784;28;20309;-78
2022/01/26 00:10:30;;;;;;;106.22;56.75;;;;;;;1.25;93.45;103246.88;1039454;28;20686;-78
2022/01/26 00:11:02;;;;;;;101.38;55.72;;;;;;;1.28;93.03;103245.84;1039665;28;20304;-78
2022/01/26 00:11:34;;;;;;;98.90;55.97;;;;;;;1.25;93.56;103249.50;1039457;28;20312;-78
2022/01/26 00:12:06;;;;;;;101.38;56.53;;;;;;;1.23;93.46;103248.75;1035472;28;20300;-78
2022/01/26 00:12:37;;;;;;;101.47;57.33;;;;;;;1.27;93.74;103245.00;1036209;28;20304;-78
2022/01/26 00:13:09;;;;;;;99.45;56.70;;;;;;;1.30;94.00;103250.06;1039444;28;20311;-75
2022/01/26 00:13:41;;;;;;;101.90;54.95;;;;;;;1.47;93.55;103241.97;1039538;28;20306;-75
2022/01/26 00:14:13;;;;;;;107.10;58.63;;;;;;;1.31;93.26;103262.25;1039531;28;20310;-75
2022/01/26 00:14:46;;;;;;;98.00;55.03;;;;;;;1.29;93.01;103258.03;1039886;28;20303;-76
2022/01/26 00:15:18;;;;;;;98.93;55.75;;;;;;;1.18;93.13;103256.94;1039692;28;20318;-76
2022/01/26 00:15:50;;;;;;;97.93;55.75;;;;;;;1.24;93.04;103260.94;1035504;28;20391;-76
2022/01/26 00:16:44;;;;;;;97.85;55.63;;;;;;;1.27;93.19;103255.50;1036242;28;20305;-75
2022/01/26 00:17:13;;;;;;;98.38;50.60;;;;;;;1.29;93.24;103256.25;1039229;28;20311;-75
2022/01/26 00:17:45;;;;;;;105.20;54.65;;;;;;;1.27;93.23;103250.25;1042076;28;20303;-76
2022/01/26 00:18:19;;;;;;;102.80;56.05;;;;;;;1.23;92.97;103251.38;1044018;28;20789;-76
2022/01/26 00:18:53;;;;;;;103.60;54.53;;;;;;;1.28;93.42;103254.56;1044213;28;20789;-75
2022/01/26 00:19:31;;;;;;;100.85;54.90;;;;;;;1.32;93.55;103240.28;1044048;28;20325;-76
2022/01/26 00:20:26;;;;;;;112.18;58.17;;;;;;;1.35;93.66;103242.72;1044052;28;20313;-76
2022/01/26 00:21:30;;;;;;;97.07;50.47;;;;;;;1.33;93.55;103249.84;1043959;28;20803;-76
2022/01/26 00:21:54;;;;;;;96.85;49.88;;;;;;;1.27;93.89;103239.75;1043940;28;20307;-76
2022/01/26 00:22:43;;;;;;;100.97;51.97;;;;;;;1.32;93.81;103242.91;1043558;28;20303;-76
2022/01/26 00:26:04;;;;;;;97.90;53.70;;;;;;;1.28;93.87;103241.44;1043888;28;20667;-79
2022/01/26 00:27:48;;;;;;;105.82;52.03;;;;;;;1.26;93.41;103231.97;1043790;28;20311;-78
2022/01/26 00:28:33;;;;;;;103.00;49.70;;;;;;;1.17;93.61;103236.88;1043795;28;20303;-78
2022/01/26 00:29:13;;;;;;;97.55;48.38;;;;;;;1.17;93.90;103238.66;1043838;28;20811;-78
2022/01/26 00:29:49;;;;;;;102.60;52.05;;;;;;;1.15;93.66;103237.91;1043601;28;20441;-79
2022/01/26 00:38:45;;;;;;;94.25;47.67;;;;;;;1.09;93.12;103251.38;1040005;28;20308;-78
2022/01/26 00:39:16;;;;;;;111.85;52.55;;;;;;;1.10;93.29;103253.09;1039887;28;20312;-78
2022/01/26 00:39:48;;;;;;;102.43;50.28;;;;;;;1.10;93.46;103259.19;1040052;28;20049;-78
2022/01/26 00:40:39;;;;;;;110.90;54.38;;;;;;;1.11;93.20;103252.16;1039804;28;20709;-78
2022/01/26 00:41:16;;;;;;;106.93;52.17;;;;;;;1.12;93.63;103248.59;1038689;28;20353;-78
2022/01/26 00:41:47;;;;;;;107.45;53.78;;;;;;;1.08;93.47;103249.69;1039583;28;20042;-78
2022/01/26 00:42:19;;;;;;;102.85;51.92;;;;;;;1.11;93.54;103249.53;1039512;28;20678;-78
2022/01/26 00:42:53;;;;;;;108.30;53.40;;;;;;;1.11;93.89;103247.75;1038238;28;20869;-78
2022/01/26 00:43:26;;;;;;;109.57;53.03;;;;;;;1.09;94.07;103243.50;1039662;28;20862;-78
2022/01/26 00:44:00;;;;;;;111.95;57.03;;;;;;;1.10;93.81;103242.59;1039661;28;20308;-78
2022/01/26 00:44:39;;;;;;;107.63;55.05;;;;;;;1.09;94.27;103246.13;1036925;28;20369;-78
2022/01/26 00:45:11;;;;;;;115.47;57.53;;;;;;;1.11;94.30;103244.28;1039774;28;20310;-78
2022/01/26 00:45:43;;;;;;;111.50;55.75;;;;;;;1.07;93.80;103248.00;1039510;28;20339;-78
2022/01/26 00:46:15;;;;;;;111.15;53.70;;;;;;;1.09;94.52;103246.13;1037229;28;20431;-78
2022/01/26 00:46:49;;;;;;;111.45;58.28;;;;;;;1.09;94.42;103236.47;1039566;28;20335;-78
2022/01/26 00:47:20;;;;;;;111.70;55.90;;;;;;;1.05;93.79;103240.25;1039469;28;20733;-78
2022/01/26 00:47:52;;;;;;;107.72;56.40;;;;;;;1.10;93.57;103237.34;1039666;28;20308;-78
2022/01/26 00:48:25;;;;;;;118.15;57.10;;;;;;;1.08;93.86;103240.03;1039545;28;20366;-78
2022/01/26 00:48:57;;;;;;;111.22;55.97;;;;;;;1.00;93.97;103237.06;1035729;28;20315;-79
2022/01/26 00:49:29;;;;;;;115.78;58.33;;;;;;;1.06;93.68;103233.22;1035552;28;20383;-78
2022/01/26 00:50:05;;;;;;;115.30;58.58;;;;;;;1.02;93.42;103239.59;1036232;28;20315;-78
2022/01/26 00:50:38;;;;;;;109.80;55.92;;;;;;;1.09;93.66;103225.97;1041188;28;20338;-78
2022/01/26 00:51:14;;;;;;;100.88;52.25;;;;;;;1.12;93.81;103227.59;1039728;28;20304;-78
2022/01/26 00:51:46;;;;;;;109.07;56.03;;;;;;;1.17;93.23;103234.25;1039620;28;20709;-76
2022/01/26 00:52:27;;;;;;;108.50;56.97;;;;;;;1.18;93.17;103227.22;1039379;28;20374;-76
2022/01/26 00:52:59;;;;;;;106.22;58.58;;;;;;;1.21;93.66;103232.28;1039664;28;20303;-76
2022/01/26 00:53:37;;;;;;;108.72;58.70;;;;;;;1.18;93.27;103237.72;1039689;28;20054;-76
2022/01/26 00:54:09;;;;;;;105.28;55.45;;;;;;;1.14;93.65;103233.59;1043648;28;20307;-76
2022/01/26 00:54:40;;;;;;;117.43;58.85;;;;;;;1.18;93.43;103235.09;1039211;28;20303;-76
2022/01/26 00:55:16;;;;;;;122.07;59.28;;;;;;;1.18;93.53;103229.84;1035478;28;20308;-75
2022/01/26 00:55:48;;;;;;;110.93;59.38;;;;;;;1.18;93.46;103232.47;1035588;28;20309;-75
2022/01/26 00:56:20;;;;;;;111.28;61.72;;;;;;;1.15;93.96;103230.88;1036653;28;20828;-75
2022/01/26 00:56:51;;;;;;;113.28;66.35;;;;;;;1.16;93.70;103229.09;1040498;28;20335;-76
2022/01/26 00:57:23;;;;;;;122.57;70.90;;;;;;;1.17;93.55;103231.63;1043710;28;20317;-76
2022/01/26 00:57:54;;;;;;;121.45;74.40;;;;;;;1.14;93.95;103228.34;1043655;28;20303;-75
2022/01/26 00:58:26;;;;;;;122.28;73.57;;;;;;;1.17;93.62;103228.16;1039688;28;20312;-76
2022/01/26 00:58:58;;;;;;;119.85;72.47;;;;;;;1.18;94.05;103224.59;1035559;28;20309;-75
2022/01/26 00:59:29;;;;;;;123.50;73.18;;;;;;;1.16;94.25;103229.09;1031352;28;20313;-75
2022/01/26 01:00:04;;;;;;;127.68;75.75;;;;;;;1.11;94.28;103228.53;1028146;28;20306;-75
2022/01/26 01:00:36;;;;;;;119.18;73.32;;;;;;;1.11;93.83;103233.78;1032265;28;20698;-76
2022/01/26 01:01:08;;;;;;;122.15;75.07;;;;;;;1.11;94.19;103236.41;1036601;28;20383;-76
2022/01/26 01:01:40;;;;;;;111.70;70.05;;;;;;;1.09;93.97;103227.75;1039685;28;20315;-76
2022/01/26 01:02:11;;;;;;;119.45;73.53;;;;;;;1.04;93.61;103224.59;1043588;28;20307;-75
2022/01/26 01:02:43;;;;;;;119.50;70.55;;;;;;;1.09;93.65;103230.38;1039549;28;20670;-75
2022/01/26 01:03:15;;;;;;;115.28;71.40;;;;;;;1.07;93.91;103222.63;1039380;28;20389;-76
2022/01/26 01:03:48;;;;;;;115.55;71.22;;;;;;;1.06;93.88;103226.19;1039538;28;20308;-76
2022/01/26 01:04:19;;;;;;;126.03;72.28;;;;;;;1.10;93.45;103222.44;1039612;28;20670;-74
2022/01/26 01:04:51;;;;;;;115.88;72.18;;;;;;;1.09;93.56;103220.72;1039580;28;20318;-79
2022/01/26 01:05:28;;;;;;;118.47;73.53;;;;;;;1.09;94.02;103217.25;1037930;28;20652;-79
2022/01/26 01:06:10;;;;;;;123.65;71.40;;;;;;;1.12;93.77;103215.31;1042975;28;20303;-78
2022/01/26 01:06:49;;;;;;;122.30;70.97;;;;;;;1.11;93.92;103218.03;1039446;28;20307;-79
2022/01/26 01:07:23;;;;;;;122.28;69.85;;;;;;;1.19;94.04;103215.78;1043110;28;20307;-78
2022/01/26 01:08:02;;;;;;;128.77;71.32;;;;;;;1.20;94.04;103206.97;1043615;28;20317;-78
2022/01/26 01:08:34;;;;;;;130.10;70.97;;;;;;;1.12;93.63;103217.09;1043869;28;20326;-78
2022/01/26 01:09:05;;;;;;;122.55;71.60;;;;;;;1.12;93.38;103209.22;1044194;28;20314;-78
2022/01/26 01:09:37;;;;;;;118.85;72.18;;;;;;;1.13;93.47;103216.16;1043845;28;20314;-78
2022/01/26 01:10:08;;;;;;;121.57;72.18;;;;;;;1.14;93.22;103212.59;1043563;28;20317;-75
2022/01/26 01:10:40;;;;;;;118.18;71.90;;;;;;;1.11;93.02;103212.78;1043719;28;20310;-75
2022/01/26 01:11:12;;;;;;;127.80;75.95;;;;;;;1.11;92.80;103207.53;1043840;28;20785;-75
2022/01/26 01:11:44;;;;;;;120.70;74.47;;;;;;;1.10;93.27;103216.34;1040060;28;20308;-75
2022/01/26 01:12:15;;;;;;;127.18;73.65;;;;;;;1.07;93.15;103221.78;1043678;28;20364;-75
2022/01/26 01:12:49;;;;;;;118.78;71.90;;;;;;;1.09;93.47;103217.25;1042867;28;20441;-74
2022/01/26 01:13:31;;;;;;;126.05;74.90;;;;;;;1.13;92.89;103216.16;1040457;28;20326;-75
2022/01/26 01:14:03;;;;;;;119.82;68.78;;;;;;;1.09;92.73;103212.84;1039556;28;20643;-77
2022/01/26 01:14:37;;;;;;;123.65;75.68;;;;;;;1.09;93.03;103214.63;1039559;28;20306;-76
2022/01/26 01:15:10;;;;;;;116.22;70.82;;;;;;;1.10;92.71;103216.34;1039634;28;20813;-75
2022/01/26 01:15:43;;;;;;;121.05;69.28;;;;;;;1.10;92.96;103205.88;1040782;28;20681;-75
2022/01/26 01:16:18;;;;;;;128.60;73.43;;;;;;;1.15;93.57;103206.41;1040836;28;20318;-76
2022/01/26 01:16:52;;;;;;;120.38;71.28;;;;;;;1.10;93.40;103200.63;1043635;28;20676;-76
2022/01/26 01:17:32;;;;;;;129.43;74.82;;;;;;;1.06;93.08;103209.59;1043688;28;20311;-75
2022/01/26 01:18:13;;;;;;;125.35;71.78;;;;;;;1.02;93.00;103203.69;1046022;28;20313;-76
2022/01/26 01:19:05;;;;;;;124.63;70.93;;;;;;;1.02;92.99;103208.09;1043753;28;20720;-76
2022/01/26 01:19:42;;;;;;;120.30;66.80;;;;;;;1.06;93.07;103209.59;1035373;28;20321;-75
2022/01/26 01:22:51;;;;;;;127.78;73.20;;;;;;;1.15;93.07;103188.88;1043743;28;20337;-78
2022/01/26 01:26:26;;;;;;;125.57;71.00;;;;;;;1.17;92.70;103194.88;1040208;28;20751;-78
2022/01/26 01:27:53;;;;;;;117.85;67.35;;;;;;;1.10;92.97;103205.88;1040444;28;20804;-79
2022/01/26 01:30:11;;;;;;;125.30;68.70;;;;;;;1.10;92.66;103213.72;1044427;28;20317;-76
2022/01/26 01:30:47;;;;;;;122.78;66.95;;;;;;;1.02;92.15;103211.56;1044406;28;20048;-76
2022/01/26 01:32:11;;;;;;;122.03;64.97;;;;;;;1.05;92.00;103210.53;1040109;28;20041;-75
2022/01/26 01:32:13;;;;;;;113.28;64.20;;;;;;;1.02;91.88;103211.56;1029240;28;20302;-75
2022/01/26 01:32:54;;;;;;;122.63;69.53;;;;;;;0.92;92.14;103207.84;1034496;28;20320;-76
2022/01/26 01:33:32;;;;;;;124.53;68.60;;;;;;;0.98;92.54;103214.47;1036133;28;20323;-75
2022/01/26 01:34:04;;;;;;;120.53;70.82;;;;;;;1.02;92.43;103213.34;1035873;28;20041;-76
2022/01/26 01:34:39;;;;;;;124.07;70.78;;;;;;;1.08;92.32;103223.47;1038606;28;20309;-75
2022/01/26 01:35:11;;;;;;;123.63;70.97;;;;;;;0.90;92.20;103215.81;1038923;28;20303;-75
2022/01/26 01:35:44;;;;;;;119.05;70.53;;;;;;;0.97;92.40;103221.50;1040188;28;20313;-79
2022/01/26 01:36:16;;;;;;;120.70;72.75;;;;;;;0.99;92.71;103229.28;1039961;28;20361;-78
2022/01/26 01:36:50;;;;;;;125.20;74.60;;;;;;;0.96;92.38;103225.06;1037055;28;20308;-78
2022/01/26 01:37:22;;;;;;;120.57;70.80;;;;;;;0.97;92.33;103223.28;1036041;28;20718;-79
2022/01/26 01:37:54;;;;;;;115.28;68.30;;;;;;;0.90;92.12;103221.06;1032116;28;20312;-78
2022/01/26 01:38:28;;;;;;;122.47;69.57;;;;;;;0.84;91.77;103220.59;1033325;28;20777;-79
2022/01/26 01:38:59;;;;;;;119.07;70.32;;;;;;;0.85;91.93;103224.91;1037108;28;20651;-78
2022/01/26 01:39:31;;;;;;;122.20;68.30;;;;;;;0.97;91.71;103225.91;1040259;28;20315;-78
2022/01/26 01:40:03;;;;;;;125.45;72.55;;;;;;;0.84;91.82;103215.34;1039885;28;20308;-78
2022/01/26 01:40:37;;;;;;;124.13;71.95;;;;;;;0.82;92.12;103220.69;1040209;28;20308;-78
2022/01/26 01:41:09;;;;;;;129.10;73.10;;;;;;;0.84;91.79;103220.59;1039289;28;20401;-78
2022/01/26 01:41:42;;;;;;;123.53;73.57;;;;;;;0.90;91.81;103220.22;1036501;28;20313;-78
2022/01/26 01:42:14;;;;;;;122.82;71.95;;;;;;;0.90;92.16;103218.44;1043996;28;20303;-78
2022/01/26 01:42:46;;;;;;;125.90;72.03;;;;;;;0.95;92.24;103212.06;1044329;28;20676;-79
2022/01/26 01:43:19;;;;;;;123.95;72.00;;;;;;;0.88;92.32;103209.81;1044518;28;20789;-78
2022/01/26 01:43:51;;;;;;;128.75;73.53;;;;;;;0.88;92.34;103207.19;1044615;28;20803;-76
2022/01/26 01:44:22;;;;;;;131.70;74.07;;;;;;;0.91;92.75;103206.16;1044059;28;20311;-76
2022/01/26 01:44:54;;;;;;;122.28;70.05;;;;;;;0.88;92.96;103207.19;1044521;28;20310;-75
2022/01/26 01:45:37;;;;;;;122.22;70.65;;;;;;;0.95;93.19;103212.06;1044486;28;20311;-75
2022/01/26 01:46:08;;;;;;;129.38;68.28;;;;;;;0.91;92.34;103207.00;1044689;28;20813;-76
2022/01/26 01:46:41;;;;;;;126.47;71.13;;;;;;;0.89;92.84;103197.53;1044708;28;20673;-75
2022/01/26 01:47:13;;;;;;;126.50;70.65;;;;;;;0.95;92.58;103206.81;1044380;28;20310;-75
2022/01/26 01:47:44;;;;;;;128.20;71.68;;;;;;;0.93;91.96;103199.03;1044496;28;20307;-75
2022/01/26 01:48:23;;;;;;;127.63;73.55;;;;;;;0.88;92.22;103196.69;1044406;28;20334;-75
2022/01/26 01:48:54;;;;;;;126.32;73.20;;;;;;;0.86;92.17;103193.31;1044693;28;20310;-75
2022/01/26 01:49:26;;;;;;;131.23;75.10;;;;;;;0.88;92.40;103186.19;1044362;28;20508;-75
2022/01/26 01:49:58;;;;;;;134.77;73.60;;;;;;;0.95;92.19;103191.91;1044512;28;20307;-76
2022/01/26 01:50:30;;;;;;;129.45;75.10;;;;;;;0.90;92.25;103184.31;1044617;28;20360;-75
2022/01/26 01:51:06;;;;;;;129.55;73.00;;;;;;;0.91;92.59;103183.38;1044208;28;20311;-75
2022/01/26 01:51:42;;;;;;;127.18;71.93;;;;;;;0.93;92.65;103189.38;1040091;28;20311;-77
2022/01/26 01:52:15;;;;;;;130.45;74.40;;;;;;;0.93;92.56;103183.28;1040229;28;20876;-75
2022/01/26 01:52:47;;;;;;;124.85;71.18;;;;;;;0.89;92.61;103187.88;1041933;28;20318;-75
2022/01/26 01:53:19;;;;;;;127.43;73.15;;;;;;;0.89;92.02;103193.13;1044429;28;20307;-76
2022/01/26 01:53:50;;;;;;;135.10;73.57;;;;;;;0.93;91.96;103194.63;1044198;28;20338;-79
2022/01/26 01:54:22;;;;;;;140.73;78.88;;;;;;;0.89;92.28;103193.13;1044408;28;20995;-78
2022/01/26 01:55:02;;;;;;;126.45;69.75;;;;;;;0.92;92.15;103192.09;1041159;28;20315;-78
2022/01/26 01:55:38;;;;;;;140.02;73.45;;;;;;;0.92;92.14;103195.56;1040354;28;20314;-78
2022/01/26 01:56:13;;;;;;;136.88;71.85;;;;;;;0.95;92.28;103185.81;1040413;28;20323;-79
2022/01/26 01:56:49;;;;;;;130.65;72.68;;;;;;;1.00;92.22;103183.75;1040468;28;20310;-79
2022/01/26 01:57:23;;;;;;;126.28;70.68;;;;;;;1.02;92.49;103180.06;1040271;28;20310;-78
2022/01/26 01:57:58;;;;;;;122.30;68.60;;;;;;;1.00;92.56;103171.47;1040099;28;20312;-78
2022/01/26 01:58:30;;;;;;;122.78;70.07;;;;;;;0.96;92.17;103171.75;1036123;28;20305;-78
2022/01/26 01:59:02;;;;;;;128.70;74.80;;;;;;;0.93;91.98;103178.03;1033540;28;20841;-79
2022/01/26 01:59:33;;;;;;;122.47;72.20;;;;;;;0.91;91.98;103187.78;1036345;28;20305;-78
2022/01/26 02:00:06;;;;;;;125.38;73.75;;;;;;;0.93;92.13;103188.53;1036518;28;20308;-78
2022/01/26 02:00:38;;;;;;;127.90;72.57;;;;;;;0.99;92.51;103188.16;1039958;28;20304;-78
2022/01/26 02:01:10;;;;;;;133.30;74.97;;;;;;;1.03;92.71;103189.63;1040195;28;20374;-78
2022/01/26 02:01:42;;;;;;;123.05;72.95;;;;;;;0.99;92.53;103193.41;1036669;28;20760;-78
2022/01/26 02:02:14;;;;;;;133.65;75.55;;;;;;;0.98;92.55;103196.13;1040097;28;20639;-78
2022/01/26 02:02:45;;;;;;;129.73;71.38;;;;;;;0.98;92.83;103190.88;1040036;28;20312;-78
2022/01/26 02:03:17;;;;;;;124.32;72.47;;;;;;;1.02;92.54;103181.84;1040054;28;20319;-78
2022/01/26 02:03:49;;;;;;;129.90;72.88;;;;;;;1.06;92.35;103183.34;1040335;28;20312;-78
2022/01/26 02:04:20;;;;;;;123.85;73.38;;;;;;;1.08;92.15;103176.22;1039938;28;20307;-78
2022/01/26 02:04:52;;;;;;;129.63;76.32;;;;;;;1.09;92.23;103178.75;1036028;28;20309;-78
2022/01/26 02:05:23;;;;;;;131.27;75.50;;;;;;;1.10;92.68;103185.72;1035707;28;20327;-78
2022/01/26 02:05:54;;;;;;;124.00;71.82;;;;;;;1.12;92.45;103177.72;1036393;28;20352;-78
2022/01/26 02:06:26;;;;;;;133.30;75.93;;;;;;;1.12;92.62;103180.34;1040227;28;20312;-78
2022/01/26 02:06:57;;;;;;;128.77;73.55;;;;;;;1.11;92.45;103181.31;1040196;28;20315;-79
2022/01/26 02:07:29;;;;;;;126.47;74.45;;;;;;;1.10;91.96;103180.47;1040095;28;20691;-78
2022/01/26 02:08:01;;;;;;;118.28;71.22;;;;;;;1.07;92.50;103177.16;1040207;28;20315;-78
2022/01/26 02:08:33;;;;;;;125.75;74.72;;;;;;;1.07;92.06;103174.53;1036406;28;20308;-78
2022/01/26 02:09:05;;;;;;;122.20;71.50;;;;;;;1.08;91.95;103174.44;1036025;28;20301;-78
2022/01/26 02:09:36;;;;;;;120.28;71.05;;;;;;;1.11;91.75;103176.91;1038151;28;20315;-78
2022/01/26 02:10:09;;;;;;;116.40;69.75;;;;;;;1.11;92.21;103176.06;1040729;28;20308;-78
2022/01/26 02:10:41;;;;;;;124.10;74.55;;;;;;;1.13;91.89;103175.00;1044356;28;20311;-78
2022/01/26 02:11:14;;;;;;;126.32;74.15;;;;;;;1.07;92.13;103172.75;1044015;28;20304;-78
2022/01/26 02:11:48;;;;;;;123.43;73.70;;;;;;;1.08;91.72;103170.97;1044228;28;20449;-78
2022/01/26 02:12:23;;;;;;;128.52;74.63;;;;;;;1.16;91.56;103176.59;1043961;28;20318;-75
2022/01/26 02:12:57;;;;;;;131.45;73.25;;;;;;;1.07;91.06;103171.91;1045909;28;20315;-76
2022/01/26 02:13:35;;;;;;;122.38;71.82;;;;;;;1.13;91.06;103168.91;1042422;28;20311;-76
2022/01/26 02:14:13;;;;;;;119.75;68.97;;;;;;;0.96;90.96;103171.75;1042278;28;20682;-75
2022/01/26 02:14:51;;;;;;;114.25;67.45;;;;;;;0.97;91.31;103170.81;1044280;28;20318;-75
2022/01/26 02:15:29;;;;;;;122.47;69.60;;;;;;;1.01;91.50;103160.03;1047472;28;20312;-75
2022/01/26 02:16:15;;;;;;;119.35;68.68;;;;;;;1.06;91.85;103168.44;1044501;28;20303;-75
2022/01/26 02:17:04;;;;;;;127.05;68.88;;;;;;;1.09;91.53;103177.91;1043714;28;20698;-76
2022/01/26 02:18:50;;;;;;;120.95;64.28;;;;;;;1.02;91.59;103176.59;1044259;28;20712;-75
2022/01/26 02:19:55;;;;;;;120.22;61.70;;;;;;;1.03;91.94;103162.53;1044090;28;20303;-75
2022/01/26 02:21:58;;;;;;;117.25;57.40;;;;;;;0.99;90.88;103161.06;1044274;28;20308;-76
2022/01/26 02:49:13;;;;;;;109.38;52.95;;;;;;;0.95;90.76;103164.81;1030031;28;20317;-75
2022/01/26 02:49:50;;;;;;;113.85;50.55;;;;;;;1.07;91.53;103148.28;1031256;28;20421;-78
2022/01/26 02:52:37;;;;;;;112.90;49.90;;;;;;;0.89;91.90;103145.91;1031553;28;20305;-78
2022/01/26 02:54:43;;;;;;;113.82;54.17;;;;;;;0.92;92.07;103148.34;1031617;28;20315;-78
2022/01/26 02:55:53;;;;;;;99.00;41.75;;;;;;;0.97;92.44;103149.81;1027311;28;19933;-78
2022/01/26 02:57:46;;;;;;;103.35;49.22;;;;;;;0.92;91.64;103152.75;1024888;28;20318;-78
2022/01/26 03:00:17;;;;;;;101.55;43.03;;;;;;;0.88;91.87;103146.00;1040106;28;20308;-78
2022/01/26 03:02:25;;;;;;;91.15;42.28;;;;;;;0.88;91.14;103141.59;1035665;28;20046;-75
2022/01/26 03:03:12;;;;;;;88.72;42.33;;;;;;;0.87;91.04;103142.53;1036711;28;20371;-76
2022/01/26 03:04:39;;;;;;;95.10;41.22;;;;;;;0.91;91.46;103140.56;1035841;28;20671;-75
2022/01/26 03:04:49;;;;;;;85.03;41.30;;;;;;;0.87;91.72;103139.91;1029820;28;20301;-75
2022/01/26 03:05:26;;;;;;;103.68;39.45;;;;;;;0.87;91.27;103141.69;1038665;28;20318;-75
2022/01/26 03:06:03;;;;;;;94.68;42.83;;;;;;;0.85;90.75;103139.16;1039956;28;20308;-76
2022/01/26 03:06:52;;;;;;;91.20;43.22;;;;;;;0.88;91.12;103132.88;1039863;28;20312;-76
2022/01/26 03:07:44;;;;;;;97.88;42.10;;;;;;;0.96;91.44;103142.88;1044233;28;20307;-75
2022/01/26 03:08:15;;;;;;;93.72;43.60;;;;;;;0.90;91.14;103141.50;1040312;28;20310;-77
2022/01/26 03:08:56;;;;;;;88.60;41.63;;;;;;;0.90;90.94;103141.50;1040242;28;20312;-76
2022/01/26 03:09:34;;;;;;;100.90;42.67;;;;;;;0.93;91.17;103141.31;1040182;28;20311;-75
2022/01/26 03:10:19;;;;;;;102.93;42.65;;;;;;;0.95;91.32;103138.59;1039723;28;20948;-74
2022/01/26 03:10:55;;;;;;;91.25;39.80;;;;;;;0.90;90.71;103141.50;1035934;28;20795;-75
2022/01/26 03:11:30;;;;;;;87.05;40.88;;;;;;;0.86;91.43;103140.00;1035737;28;20314;-76
2022/01/26 03:12:03;;;;;;;91.75;44.25;;;;;;;0.90;91.20;103141.50;1039956;28;20311;-75
2022/01/26 03:12:44;;;;;;;82.43;41.38;;;;;;;0.85;91.01;103133.94;1035783;28;20313;-75
2022/01/26 03:13:22;;;;;;;88.78;41.40;;;;;;;0.82;90.66;103144.63;1031852;28;20309;-75
2022/01/26 03:14:02;;;;;;;86.82;39.13;;;;;;;0.89;91.19;103138.03;1031741;28;20305;-76
2022/01/26 03:14:51;;;;;;;83.93;41.03;;;;;;;0.91;90.50;103137.94;1035233;28;20315;-75
2022/01/26 03:15:32;;;;;;;93.90;40.58;;;;;;;0.86;90.35;103135.59;1040065;28;20389;-75
2022/01/26 03:16:42;;;;;;;;;;;;;;;0.81;90.80;103140.28;1040396;28;20674;-75
2022/01/26 03:17:16;;;;;;;70.88;31.92;;;;;;;0.82;90.51;103144.63;1036877;28;19927;-75
2022/01/26 03:19:51;;;;;;;85.80;39.65;;;;;;;0.88;91.43;103144.22;1039970;28;20375;-75
2022/01/26 03:20:22;;;;;;;86.55;38.95;;;;;;;0.87;91.64;103141.69;1035882;28;20308;-76
2022/01/26 03:20:57;;;;;;;88.53;38.92;;;;;;;0.86;91.33;103146.09;1031728;28;20309;-74
2022/01/26 03:21:45;;;;;;;87.65;39.58;;;;;;;0.82;91.63;103144.63;1029854;28;20309;-75
2022/01/26 03:28:47;;;;;;;82.90;37.22;;;;;;;0.93;91.66;103126.41;1039992;28;20932;-75
2022/01/26 03:30:07;;;;;;;85.40;39.33;;;;;;;0.97;91.75;103126.22;1044249;28;20310;-76
2022/01/26 03:34:25;;;;;;;85.22;36.83;;;;;;;0.98;91.25;103112.16;1041679;28;20389;-76
2022/01/26 03:34:58;;;;;;;88.00;40.13;;;;;;;0.95;90.57;103107.09;1043682;28;20329;-76
2022/01/26 03:35:41;;;;;;;84.13;40.70;;;;;;;0.97;90.96;103106.06;1039747;28;20304;-76
2022/01/26 03:36:14;;;;;;;80.13;39.67;;;;;;;1.01;90.68;103101.44;1043887;28;20303;-76
2022/01/26 03:36:53;;;;;;;86.88;40.50;;;;;;;0.99;91.32;103108.56;1043991;28;20313;-75
2022/01/26 03:37:31;;;;;;;93.10;42.95;;;;;;;0.95;90.95;103107.94;1043367;28;20303;-76
2022/01/26 03:38:03;;;;;;;81.00;40.67;;;;;;;0.91;90.74;103094.19;1044044;28;20303;-75
2022/01/26 03:38:42;;;;;;;91.28;42.97;;;;;;;0.93;90.57;103096.69;1044099;28;20685;-75
2022/01/26 03:39:16;;;;;;;85.18;41.47;;;;;;;0.89;90.82;103092.59;1044130;28;20315;-76
2022/01/26 03:39:50;;;;;;;91.13;41.60;;;;;;;0.90;90.68;103089.03;1039887;28;20300;-75
2022/01/26 03:40:30;;;;;;;82.85;40.35;;;;;;;0.92;90.98;103088.00;1039637;28;20330;-76
2022/01/26 03:42:05;;;;;;;88.53;41.33;;;;;;;0.86;91.20;103095.41;1039946;28;20366;-75
2022/01/26 03:42:05;;;;;;;82.65;38.65;;;;;;;0.92;91.07;103080.13;1031515;28;20054;-76
2022/01/26 03:42:37;;;;;;;78.47;36.42;;;;;;;0.87;91.02;103086.59;1043809;28;20307;-76
2022/01/26 03:43:08;;;;;;;81.93;37.67;;;;;;;0.87;90.72;103086.59;1044076;28;20785;-75
2022/01/26 03:43:40;;;;;;;89.32;41.40;;;;;;;0.84;91.17;103084.19;1044209;28;20314;-75
2022/01/26 03:44:11;;;;;;;83.78;40.15;;;;;;;0.87;90.74;103079.56;1043879;28;20341;-76
2022/01/26 03:44:43;;;;;;;91.40;40.95;;;;;;;0.89;90.95;103088.19;1039628;28;20402;-75
2022/01/26 03:45:15;;;;;;;92.03;41.42;;;;;;;0.89;91.00;103090.81;1039802;28;20311;-78
2022/01/26 03:45:46;;;;;;;92.68;44.38;;;;;;;0.89;91.10;103090.81;1040158;28;20307;-78
2022/01/26 03:46:17;;;;;;;89.88;45.10;;;;;;;0.86;91.33;103092.78;1043982;28;20784;-78
2022/01/26 03:46:51;;;;;;;90.22;44.17;;;;;;;0.86;91.70;103103.28;1044119;28;20673;-78
2022/01/26 03:47:23;;;;;;;86.18;44.15;;;;;;;0.84;91.86;103100.75;1041416;28;20307;-78
2022/01/26 03:47:55;;;;;;;89.95;47.95;;;;;;;0.82;91.51;103110.50;1039879;28;20307;-77
2022/01/26 03:48:26;;;;;;;92.45;52.40;;;;;;;0.85;91.81;103106.84;1039532;28;20356;-76
2022/01/26 03:48:58;;;;;;;96.18;53.97;;;;;;;0.87;91.96;103105.81;1035787;28;20322;-76
2022/01/26 03:49:29;;;;;;;99.47;53.60;;;;;;;0.92;92.14;103113.38;1035505;28;20312;-76
2022/01/26 03:50:01;;;;;;;95.10;52.97;;;;;;;0.93;92.51;103109.81;1039939;28;20303;-75
2022/01/26 03:50:32;;;;;;;95.50;53.17;;;;;;;0.97;92.24;103105.22;1036100;28;20305;-76
2022/01/26 03:51:04;;;;;;;99.72;52.00;;;;;;;0.89;92.38;103100.47;1039711;28;20316;-75
2022/01/26 03:51:36;;;;;;;97.85;52.83;;;;;;;0.88;92.08;103106.66;1039729;28;20812;-75
2022/01/26 03:52:09;;;;;;;90.75;50.25;;;;;;;0.92;92.26;103098.47;1035979;28;20308;-76
2022/01/26 03:52:40;;;;;;;91.93;49.97;;;;;;;0.96;92.08;103104.38;1035772;28;20657;-75
2022/01/26 03:53:12;;;;;;;95.28;51.63;;;;;;;0.95;92.14;103101.84;1035487;28;20312;-78
2022/01/26 03:53:43;;;;;;;101.05;53.15;;;;;;;0.90;92.41;103103.00;1031572;28;20312;-78
2022/01/26 03:54:16;;;;;;;96.32;50.53;;;;;;;0.89;92.62;103096.06;1032063;28;20317;-78
2022/01/26 03:54:48;;;;;;;100.07;52.10;;;;;;;0.76;92.15;103094.28;1035981;28;20316;-79
2022/01/26 03:55:19;;;;;;;88.47;50.40;;;;;;;0.78;92.00;103093.25;1035699;28;20347;-78
2022/01/26 03:55:51;;;;;;;92.57;51.80;;;;;;;0.77;92.41;103094.19;1035423;28;20313;-78
2022/01/26 03:56:22;;;;;;;88.53;49.20;;;;;;;0.80;92.34;103101.88;1035869;28;20319;-78
2022/01/26 03:56:54;;;;;;;95.18;48.58;;;;;;;0.83;92.41;103104.31;1035933;28;20312;-78